Friday, January 19, 2018, 10:34 PM EST
Back to Local

KPQI, Presque Isle

Location: Presque Isle, ME, United States Lat: 46.683
Local Time: 10:34 PM EST ( 3:34 GMT) Lon: -68.05
Time Zone: US/Eastern Elev: 534 ft

Show me the last for .
Show Decoded

2018-01-19 21:56 METAR KPQI 200256Z AUTO 17008KT 10SM OVC022 M05/M07 A2973 RMK AO2 SLP112
                 T10501067 58011 FZRANO =
2018-01-19 20:56 METAR KPQI 200156Z AUTO 18004KT 10SM OVC024 M06/M07 A2976 RMK AO2 SLP124
                 T10561072 FZRANO =
2018-01-19 19:56 METAR KPQI 200056Z AUTO 15005KT 10SM OVC026 M06/M08 A2977 RMK AO2 SLP128
                 T10561078 FZRANO =
2018-01-19 18:56 METAR KPQI 192356Z AUTO 14005KT 10SM OVC026 M06/M08 A2977 RMK AO2 SLP126 60000
                 T10561078 11044 21056 58015 FZRANO =
2018-01-19 17:56 METAR KPQI 192256Z AUTO 17006KT 10SM OVC022 M06/M08 A2979 RMK AO2 SLP136
                 T10561078 FZRANO =
2018-01-19 16:56 METAR KPQI 192156Z AUTO 15006KT 10SM OVC020 M06/M08 A2980 RMK AO2 SNE34 SLP136
                 P0000 T10561078 FZRANO =
2018-01-19 16:29 METAR KPQI 192129Z AUTO 15004KT 9SM -SN BKN020 OVC028 M06/M08 A2980 RMK AO2
                 P0000 FZRANO =
2018-01-19 15:56 METAR KPQI 192056Z AUTO 15005KT 9SM -SN BKN026 OVC036 M06/M08 A2981 RMK AO2
                 SLP140 P0000 60000 T10561083 55004 FZRANO =
2018-01-19 14:56 METAR KPQI 191956Z AUTO 15006KT 9SM -SN OVC021 M06/M09 A2981 RMK AO2 SLP139
                 P0000 T10561089 FZRANO =
2018-01-19 14:04 METAR KPQI 191904Z AUTO 16005KT 6SM -SN FEW016 BKN029 OVC034 M05/M08 A2982 RMK
                 AO2 P0000 FZRANO =
2018-01-19 13:56 METAR KPQI 191856Z AUTO 14004KT 9SM -SN SCT016 BKN032 OVC075 M05/M08 A2982 RMK
                 AO2 UPB46E56SNE46B56 SLP144 P0000 T10501083 FZRANO =
2018-01-19 13:36 METAR KPQI 191836Z AUTO 00000KT 6SM -SN SCT016 BKN036 OVC075 M04/M08 A2982 RMK
                 AO2 P0000 FZRANO =
2018-01-19 12:56 METAR KPQI 191756Z AUTO 00000KT 7SM -SN OVC016 M05/M09 A2982 RMK AO2 SLP144
                 P0000 60000 T10501089 11050 21122 56014 FZRANO =
2018-01-19 11:56 METAR KPQI 191656Z AUTO 00000KT 9SM -SN OVC016 M06/M10 A2984 RMK AO2 SLP150
                 P0000 T10611100 FZRANO =
2018-01-19 11:51 METAR KPQI 191651Z AUTO 04003KT 9SM -SN OVC016 M06/M10 A2984 RMK AO2 P0000
                 FZRANO =
2018-01-19 10:56 METAR KPQI 191556Z AUTO 00000KT 9SM -SN OVC014 M07/M09 A2986 RMK AO2 SNB07E18B35
                 SLP160 P0000 T10671089 FZRANO =
2018-01-19 10:54 METAR KPQI 191554Z AUTO 00000KT 9SM -SN OVC014 M07/M09 A2987 RMK AO2 SNB07E18B35
                 P0000 FZRANO =
2018-01-19 09:56 METAR KPQI 191456Z AUTO 00000KT 10SM BKN018 BKN042 OVC049 M08/M10 A2987 RMK AO2
                 SLP160 60000 T10781100 51003 FZRANO =
2018-01-19 09:52 METAR KPQI 191452Z AUTO 00000KT 10SM BKN018 BKN042 OVC049 M08/M09 A2987 RMK AO2
                 FZRANO =
2018-01-19 08:56 METAR KPQI 191356Z AUTO 00000KT 10SM SCT016 OVC042 M10/M12 A2986 RMK AO2 SNE48
                 SLP158 P0000 T11001117 FZRANO =
2018-01-19 08:41 METAR KPQI 191341Z AUTO 00000KT 7SM -SN SCT016 BKN042 M11/M12 A2986 RMK AO2
                 P0000 FZRANO =
2018-01-19 07:56 METAR KPQI 191256Z AUTO 00000KT 9SM -SN OVC016 M12/M13 A2986 RMK AO2 SNE15B37
                 SLP157 P0000 T11171128 FZRANO =
2018-01-19 06:56 METAR KPQI 191156Z AUTO 00000KT 9SM -SN OVC016 M12/M14 A2985 RMK AO2 SNB25
                 SLP153 P0000 60000 T11221139 11117 21156 50003 FZRANO =
2018-01-19 06:08 METAR KPQI 191108Z AUTO 00000KT 10SM OVC016 M13/M14 A2985 RMK AO2 FZRANO =
2018-01-19 05:56 METAR KPQI 191056Z AUTO 22006KT 10SM OVC014 M13/M14 A2985 RMK AO2 SLP155
                 T11281144 FZRANO =
2018-01-19 05:26 METAR KPQI 191026Z AUTO 00000KT 10SM OVC014 M13/M15 A2985 RMK AO2 FZRANO =
2018-01-19 04:56 METAR KPQI 190956Z AUTO 15003KT 10SM OVC016 M14/M16 A2984 RMK AO2 SLP151
                 T11391161 FZRANO =
2018-01-19 03:56 METAR KPQI 190856Z AUTO 00000KT 10SM BKN018 M15/M17 A2984 RMK AO2 SNB0758E12
                 SLP150 P0000 60000 T11501167 53005 FZRANO =
2018-01-19 03:54 METAR KPQI 190854Z AUTO 00000KT 10SM BKN018 M15/M17 A2984 RMK AO2 SNB0758E12
                 P0000 FZRANO =
2018-01-19 02:56 METAR KPQI 190756Z AUTO 00000KT 10SM SCT032 M15/M18 A2982 RMK AO2 SNE40 SLP144
                 P0000 T11501178 FZRANO =
2018-01-19 01:56 METAR KPQI 190656Z AUTO 17003KT 9SM -SN BKN030 M12/M14 A2982 RMK AO2 SLP145
                 P0000 T11171139 FZRANO =
2018-01-19 00:56 METAR KPQI 190556Z AUTO 00000KT 8SM -SN BKN032 M14/M16 A2981 RMK AO2 SLP142
                 P0000 60000 T11441156 11072 21156 58009 FZRANO =
2018-01-18 23:56 METAR KPQI 190456Z AUTO 00000KT 10SM -SN FEW019 M14/M16 A2984 RMK AO2 SNB52
                 SLP151 P0000 T11391161 410221139 FZRANO =
2018-01-18 22:56 METAR KPQI 190356Z AUTO 00000KT 10SM CLR M12/M13 A2984 RMK AO2 SLP152 T11171133
                 FZRANO =

Support USWX by starting your Amazon purchase here.